createdAt,value
2024-02-19T00:00:31.834Z,10.40
2024-02-19T00:02:34.617Z,11.50
2024-02-19T00:04:37.486Z,10.73
2024-02-19T00:06:40.417Z,10.17
2024-02-19T00:08:42.411Z,9.30
2024-02-19T00:10:46.532Z,11.20
2024-02-19T00:12:49.496Z,9.83
2024-02-19T00:14:52.266Z,9.53
2024-02-19T00:16:55.622Z,9.20
2024-02-19T00:18:58.409Z,9.00
2024-02-19T00:21:01.517Z,8.97
2024-02-19T00:23:04.433Z,8.87
2024-02-19T00:25:07.652Z,7.90
2024-02-19T00:27:11.750Z,8.23
2024-02-19T00:29:14.490Z,7.60
2024-02-19T00:31:18.279Z,8.13
2024-02-19T00:33:21.497Z,8.33
2024-02-19T00:35:24.409Z,7.30
2024-02-19T00:37:28.088Z,7.80
2024-02-19T00:39:30.817Z,8.43
2024-02-19T00:41:33.603Z,7.23
2024-02-19T00:43:37.992Z,8.50
2024-02-19T00:45:40.788Z,7.13
2024-02-19T00:47:43.712Z,8.40
2024-02-19T00:49:46.590Z,6.80
2024-02-19T00:51:49.469Z,7.80
2024-02-19T00:53:52.274Z,8.07
2024-02-19T00:55:55.034Z,7.60
2024-02-19T00:57:57.805Z,7.03
2024-02-19T01:00:01.898Z,6.63
2024-02-19T01:02:05.009Z,6.07
2024-02-19T01:04:07.107Z,6.60
2024-02-19T01:06:09.930Z,5.73
2024-02-19T01:08:12.707Z,5.83
2024-02-19T01:10:14.713Z,4.77
2024-02-19T01:12:17.644Z,5.00
2024-02-19T01:14:20.427Z,3.70
2024-02-19T01:16:24.593Z,4.60
2024-02-19T01:18:27.412Z,3.70
2024-02-19T01:20:29.209Z,4.10
2024-02-19T01:22:32.038Z,4.17
2024-02-19T01:24:34.845Z,4.10
2024-02-19T01:26:37.630Z,2.67
2024-02-19T01:28:40.385Z,2.70
2024-02-19T01:30:43.159Z,2.60
2024-02-19T01:32:47.306Z,2.40
2024-02-19T01:34:50.271Z,2.13
2024-02-19T01:36:53.115Z,1.70
2024-02-19T01:38:55.860Z,1.27
2024-02-19T01:40:58.643Z,1.33
2024-02-19T01:43:03.219Z,1.37
2024-02-19T01:45:08.292Z,1.20
2024-02-19T01:47:11.215Z,1.30
2024-02-19T01:49:15.407Z,1.17
2024-02-19T01:51:18.233Z,1.03
2024-02-19T01:53:20.960Z,1.10
2024-02-19T01:55:23.765Z,1.20
2024-02-19T01:57:26.510Z,1.30
2024-02-19T01:59:29.260Z,1.20
2024-02-19T02:01:32.038Z,1.40
2024-02-19T02:03:34.953Z,1.00
2024-02-19T02:05:39.110Z,0.73
2024-02-19T02:07:41.662Z,0.90
2024-02-19T02:09:44.411Z,1.20
2024-02-19T02:11:47.149Z,1.30
2024-02-19T02:13:49.874Z,1.10
2024-02-19T02:15:52.702Z,1.20
2024-02-19T02:17:55.595Z,1.23
2024-02-19T02:19:58.546Z,1.10
2024-02-19T02:22:02.732Z,1.07
2024-02-19T02:24:06.277Z,0.80
2024-02-19T02:26:09.023Z,1.00
2024-02-19T02:28:13.157Z,1.20
2024-02-19T02:30:16.244Z,1.27
2024-02-19T02:32:19.000Z,1.13
2024-02-19T02:34:21.954Z,1.40
2024-02-19T02:36:24.773Z,1.40
2024-02-19T02:38:27.513Z,1.43
2024-02-19T02:40:30.237Z,1.57
2024-02-19T02:42:33.019Z,1.30
2024-02-19T02:44:36.177Z,1.40
2024-02-19T02:46:38.922Z,1.50
2024-02-19T02:48:41.874Z,1.90
2024-02-19T02:50:44.668Z,1.87
2024-02-19T02:52:48.348Z,1.60
2024-02-19T02:54:51.114Z,1.67
2024-02-19T02:56:53.868Z,1.83
2024-02-19T02:58:56.606Z,1.33
2024-02-19T03:01:01.196Z,1.70
2024-02-19T03:03:03.117Z,1.80
2024-02-19T03:05:06.546Z,1.70
2024-02-19T03:07:09.421Z,1.40
2024-02-19T03:09:12.274Z,1.80
2024-02-19T03:11:15.045Z,1.70
2024-02-19T03:13:17.835Z,2.17
2024-02-19T03:15:20.644Z,2.30
2024-02-19T03:17:24.824Z,2.00
2024-02-19T03:19:27.917Z,1.50
2024-02-19T03:21:30.758Z,1.93
2024-02-19T03:23:33.533Z,1.60
2024-02-19T03:25:36.687Z,1.43
2024-02-19T03:27:39.865Z,1.43
2024-02-19T03:29:42.635Z,1.30
2024-02-19T03:31:45.632Z,1.57
2024-02-19T03:33:50.346Z,1.70
2024-02-19T03:35:54.103Z,1.37
2024-02-19T03:37:56.921Z,1.37
2024-02-19T03:39:59.708Z,1.17
2024-02-19T03:42:03.761Z,1.70
2024-02-19T03:44:06.619Z,1.80
2024-02-19T03:46:09.805Z,1.90
2024-02-19T03:48:12.799Z,2.20
2024-02-19T03:50:17.507Z,2.37
2024-02-19T03:52:20.710Z,2.10
2024-02-19T03:54:23.635Z,2.60
2024-02-19T03:56:26.444Z,1.90
2024-02-19T03:58:29.192Z,2.17
2024-02-19T04:00:31.871Z,2.03
2024-02-19T04:02:34.652Z,2.07
2024-02-19T04:04:37.480Z,1.80
2024-02-19T04:06:41.725Z,1.77
2024-02-19T04:08:43.584Z,2.43
2024-02-19T04:10:46.342Z,2.10
2024-02-19T04:12:49.105Z,1.83
2024-02-19T04:14:51.885Z,2.60
2024-02-19T04:16:54.622Z,2.03
2024-02-19T04:18:57.523Z,2.10
2024-02-19T04:21:00.398Z,2.27
2024-02-19T04:23:04.710Z,2.70
2024-02-19T04:25:07.677Z,2.60
2024-02-19T04:27:10.517Z,2.70
2024-02-19T04:29:13.359Z,2.50
2024-02-19T04:31:16.233Z,2.03
2024-02-19T04:33:19.233Z,2.40
2024-02-19T04:35:22.085Z,2.50
2024-02-19T04:37:24.975Z,2.87
2024-02-19T04:39:29.111Z,2.43
2024-02-19T04:41:31.885Z,3.40
2024-02-19T04:43:34.617Z,3.27
2024-02-19T04:45:37.469Z,2.97
2024-02-19T04:47:40.268Z,3.33
2024-02-19T04:49:42.923Z,2.60
2024-02-19T04:51:45.695Z,3.40
2024-02-19T04:53:48.453Z,3.20
2024-02-19T04:55:53.284Z,2.80
2024-02-19T04:57:56.070Z,3.10
2024-02-19T04:59:58.828Z,2.40
2024-02-19T05:02:01.939Z,2.23
2024-02-19T05:04:05.740Z,2.03
2024-02-19T05:06:08.863Z,2.40
2024-02-19T05:08:10.703Z,2.10
2024-02-19T05:10:14.257Z,2.60
2024-02-19T05:12:18.382Z,2.60
2024-02-19T05:14:21.345Z,2.83
2024-02-19T05:16:23.199Z,3.00
2024-02-19T05:18:26.088Z,2.40
2024-02-19T05:20:27.906Z,2.53
2024-02-19T05:22:30.715Z,2.70
2024-02-19T05:24:33.442Z,2.80
2024-02-19T05:26:36.220Z,2.30
2024-02-19T05:28:40.316Z,2.30
2024-02-19T05:30:43.072Z,2.80
2024-02-19T05:32:45.908Z,2.40
2024-02-19T05:34:48.745Z,2.10
2024-02-19T05:36:51.512Z,2.97
2024-02-19T05:38:53.357Z,2.80
2024-02-19T05:40:56.453Z,2.83
2024-02-19T05:42:59.272Z,2.50
2024-02-19T05:45:02.392Z,3.00
2024-02-19T05:47:05.563Z,3.23
2024-02-19T05:49:08.428Z,2.30
2024-02-19T05:51:12.605Z,3.23
2024-02-19T05:53:15.526Z,2.83
2024-02-19T05:55:17.427Z,2.77
2024-02-19T05:57:20.238Z,3.23
2024-02-19T05:59:22.985Z,2.97
2024-02-19T06:01:27.118Z,3.60
2024-02-19T06:03:28.953Z,2.87
2024-02-19T06:05:31.757Z,4.40
2024-02-19T06:07:35.126Z,3.97
2024-02-19T06:09:39.354Z,3.00
2024-02-19T06:11:45.812Z,3.77
2024-02-19T06:13:49.161Z,12.70
2024-02-19T06:15:51.916Z,4.10
2024-02-19T06:17:56.076Z,3.00
2024-02-19T06:19:58.946Z,3.00
2024-02-19T06:22:01.792Z,3.27
2024-02-19T06:24:04.782Z,3.10
2024-02-19T06:26:07.924Z,3.27
2024-02-19T06:28:10.669Z,2.63
2024-02-19T06:30:14.050Z,2.80
2024-02-19T06:32:15.833Z,3.00
2024-02-19T06:34:20.132Z,2.77
2024-02-19T06:36:23.297Z,3.33
2024-02-19T06:38:26.031Z,2.20
2024-02-19T06:40:28.944Z,2.50
2024-02-19T06:42:31.740Z,2.13
2024-02-19T06:44:34.500Z,2.37
2024-02-19T06:46:37.224Z,1.90
2024-02-19T06:48:41.027Z,2.03
2024-02-19T06:50:45.186Z,2.37
2024-02-19T06:52:47.486Z,1.90
2024-02-19T06:54:50.485Z,2.13
2024-02-19T06:56:53.198Z,1.90
2024-02-19T06:58:55.937Z,1.97
2024-02-19T07:00:58.783Z,2.10
2024-02-19T07:03:01.782Z,20.47
2024-02-19T07:05:06.629Z,3.90
2024-02-19T07:07:11.167Z,2.43
2024-02-19T07:09:13.984Z,2.17
2024-02-19T07:11:16.767Z,2.27
2024-02-19T07:13:19.560Z,2.37
2024-02-19T07:15:21.358Z,2.30
2024-02-19T07:17:24.163Z,2.40
2024-02-19T07:19:27.072Z,2.57
2024-02-19T07:21:29.841Z,2.20
2024-02-19T07:23:33.954Z,2.50
2024-02-19T07:25:36.722Z,2.87
2024-02-19T07:27:39.493Z,2.50
2024-02-19T07:29:42.593Z,2.20
2024-02-19T07:31:45.339Z,3.00
2024-02-19T07:33:48.339Z,2.80
2024-02-19T07:35:50.284Z,2.10
2024-02-19T07:37:53.044Z,2.70
2024-02-19T07:39:57.197Z,2.80
2024-02-19T07:42:01.175Z,2.03
2024-02-19T07:44:03.911Z,2.80
2024-02-19T07:46:06.693Z,2.60
2024-02-19T07:48:09.822Z,2.57
2024-02-19T07:50:12.679Z,2.40
2024-02-19T07:52:14.590Z,1.87
2024-02-19T07:54:17.409Z,2.20
2024-02-19T07:56:21.500Z,2.30
2024-02-19T07:58:24.321Z,2.13
2024-02-19T08:00:27.117Z,2.50
2024-02-19T08:02:30.039Z,2.10
2024-02-19T08:04:32.955Z,2.43
2024-02-19T08:06:35.808Z,2.57
2024-02-19T08:08:37.599Z,2.63
2024-02-19T08:10:40.338Z,2.40
2024-02-19T08:12:44.805Z,2.13
2024-02-19T08:14:47.821Z,1.97
2024-02-19T08:16:51.502Z,1.80
2024-02-19T08:18:54.658Z,2.20
2024-02-19T08:20:57.453Z,2.10
2024-02-19T08:23:00.354Z,2.97
2024-02-19T08:25:03.156Z,2.30
2024-02-19T08:27:06.593Z,2.20
2024-02-19T08:29:10.669Z,2.50
2024-02-19T08:31:13.431Z,1.80
2024-02-19T08:33:16.271Z,2.50
2024-02-19T08:35:19.427Z,2.40
2024-02-19T08:37:22.744Z,2.40
2024-02-19T08:39:24.599Z,2.10
2024-02-19T08:41:27.332Z,2.53
2024-02-19T08:43:30.158Z,2.23
2024-02-19T08:45:37.212Z,2.40
2024-02-19T08:47:40.532Z,2.40
2024-02-19T08:49:42.446Z,2.37
2024-02-19T08:51:45.309Z,2.40
2024-02-19T08:53:53.643Z,2.60
2024-02-19T08:55:59.219Z,2.57
2024-02-19T08:58:02.021Z,3.50
2024-02-19T09:00:05.638Z,2.93
2024-02-19T09:02:09.996Z,3.30
2024-02-19T09:04:12.916Z,2.80
2024-02-19T09:06:15.877Z,3.13
2024-02-19T09:08:19.219Z,3.47
2024-02-19T09:10:22.098Z,3.17
2024-02-19T09:12:25.693Z,3.53
2024-02-19T09:14:29.140Z,3.60
2024-02-19T09:16:32.650Z,3.33
2024-02-19T09:18:36.779Z,4.20
2024-02-19T09:20:38.584Z,4.07
2024-02-19T09:22:43.397Z,3.57
2024-02-19T09:24:48.951Z,4.30
2024-02-19T09:26:51.813Z,3.50
2024-02-19T09:28:54.550Z,4.07
2024-02-19T09:30:57.312Z,3.80
2024-02-19T09:32:59.164Z,3.43
2024-02-19T09:35:04.635Z,3.90
2024-02-19T09:37:07.570Z,4.13
2024-02-19T09:39:10.729Z,4.80
2024-02-19T09:41:13.468Z,4.43
2024-02-19T09:43:16.299Z,4.40
2024-02-19T09:45:20.460Z,3.30
2024-02-19T09:47:23.279Z,3.57
2024-02-19T09:49:29.011Z,3.43
2024-02-19T09:51:40.562Z,3.70
2024-02-19T09:53:43.990Z,3.10
2024-02-19T09:55:46.903Z,3.47
2024-02-19T09:57:49.675Z,3.13
2024-02-19T09:59:52.447Z,3.10
2024-02-19T10:01:55.330Z,3.13
2024-02-19T10:03:58.566Z,2.90
2024-02-19T10:06:03.474Z,3.23
2024-02-19T10:08:13.978Z,2.93
2024-02-19T10:10:16.842Z,3.00
2024-02-19T10:12:19.871Z,2.60
2024-02-19T10:14:22.687Z,2.60
2024-02-19T10:16:25.523Z,3.10
2024-02-19T10:18:28.390Z,4.40
2024-02-19T10:20:31.225Z,2.30
2024-02-19T10:22:34.453Z,2.90
2024-02-19T10:24:38.537Z,3.03
2024-02-19T10:26:41.462Z,3.13
2024-02-19T10:28:44.887Z,2.70
2024-02-19T10:30:47.653Z,2.80
2024-02-19T10:32:50.429Z,3.60
2024-02-19T10:34:53.311Z,2.83
2024-02-19T10:36:56.122Z,2.10
2024-02-19T10:38:59.450Z,2.47
2024-02-19T10:41:03.613Z,2.73
2024-02-19T10:43:06.611Z,2.60
2024-02-19T10:45:10.528Z,2.70
2024-02-19T10:47:13.281Z,2.77
2024-02-19T10:49:20.616Z,2.80
2024-02-19T10:51:23.429Z,3.30
2024-02-19T10:53:29.820Z,2.50
2024-02-19T10:55:41.263Z,2.67
2024-02-19T10:57:54.627Z,3.27
2024-02-19T11:00:08.131Z,4.13
2024-02-19T11:02:12.600Z,3.20
2024-02-19T11:04:24.399Z,4.23
2024-02-19T11:06:27.332Z,2.80
2024-02-19T11:08:35.695Z,3.07
2024-02-19T11:10:40.819Z,3.03
2024-02-19T11:12:43.864Z,2.80
2024-02-19T11:14:52.066Z,2.63
2024-02-19T11:16:55.266Z,2.80
2024-02-19T11:19:01.026Z,3.20
2024-02-19T11:21:05.276Z,3.30
2024-02-19T11:23:08.051Z,2.33
2024-02-19T11:25:11.708Z,2.90
2024-02-19T11:27:14.536Z,2.70
2024-02-19T11:29:18.707Z,3.10
2024-02-19T11:31:22.905Z,2.37
2024-02-19T11:33:25.762Z,2.53
2024-02-19T11:35:28.598Z,3.13
2024-02-19T11:37:31.511Z,3.27
2024-02-19T11:39:34.717Z,2.77
2024-02-19T11:41:38.067Z,3.37
2024-02-19T11:43:40.789Z,3.43
2024-02-19T11:45:43.684Z,3.00
2024-02-19T11:47:47.784Z,3.60
2024-02-19T11:49:50.676Z,3.90
2024-02-19T11:52:01.519Z,3.27
2024-02-19T11:54:11.650Z,3.60
2024-02-19T11:56:19.129Z,3.80
2024-02-19T11:58:22.577Z,4.07
2024-02-19T12:00:25.702Z,4.90
2024-02-19T12:02:28.865Z,4.37
2024-02-19T12:04:35.667Z,5.33
2024-02-19T12:06:38.541Z,3.80
2024-02-19T12:08:40.518Z,3.53
2024-02-19T12:10:43.371Z,5.30
2024-02-19T12:12:46.204Z,4.30
2024-02-19T12:14:47.995Z,4.30
2024-02-19T12:16:51.290Z,4.17
2024-02-19T12:18:54.125Z,3.73
2024-02-19T12:20:58.236Z,4.03
2024-02-19T12:23:00.992Z,5.10
2024-02-19T12:25:03.849Z,4.60
2024-02-19T12:27:06.721Z,3.53
2024-02-19T12:29:09.590Z,4.00
2024-02-19T12:31:12.885Z,4.80
2024-02-19T12:33:15.792Z,4.30
2024-02-19T12:35:20.889Z,4.27
2024-02-19T12:37:25.189Z,5.10
2024-02-19T12:39:27.619Z,4.83
2024-02-19T12:41:30.738Z,5.00
2024-02-19T12:43:33.517Z,5.23
2024-02-19T12:45:37.415Z,3.80
2024-02-19T12:47:40.296Z,4.60
2024-02-19T12:49:43.201Z,4.40
2024-02-19T12:51:47.143Z,4.27
2024-02-19T12:53:51.269Z,4.07
2024-02-19T12:55:54.028Z,4.60
2024-02-19T12:57:57.341Z,4.63
2024-02-19T13:00:02.183Z,4.50
2024-02-19T13:02:05.253Z,19.37
2024-02-19T13:04:08.200Z,4.60
2024-02-19T13:06:15.673Z,3.13
2024-02-19T13:08:18.715Z,3.93
2024-02-19T13:10:22.880Z,5.27
2024-02-19T13:12:24.945Z,3.40
2024-02-19T13:14:27.710Z,3.27
2024-02-19T13:16:29.729Z,3.93
2024-02-19T13:18:33.128Z,4.03
2024-02-19T13:20:35.925Z,3.70
2024-02-19T13:22:38.846Z,3.47
2024-02-19T13:24:41.654Z,3.87
2024-02-19T13:26:45.835Z,4.00
2024-02-19T13:28:48.605Z,3.97
2024-02-19T13:30:51.476Z,4.63
2024-02-19T13:32:54.268Z,3.40
2024-02-19T13:34:57.114Z,3.00
2024-02-19T13:37:00.478Z,4.90
2024-02-19T13:39:03.900Z,3.37
2024-02-19T13:41:07.551Z,4.73
2024-02-19T13:43:12.067Z,4.40
2024-02-19T13:45:15.196Z,4.17
2024-02-19T13:47:17.949Z,3.87
2024-02-19T13:49:21.493Z,4.50
2024-02-19T13:51:24.344Z,3.43
2024-02-19T13:53:27.510Z,3.60
2024-02-19T13:55:30.481Z,4.10
2024-02-19T13:57:33.242Z,3.47
2024-02-19T13:59:37.312Z,3.43
2024-02-19T14:01:42.404Z,4.17
2024-02-19T14:03:48.858Z,3.93
2024-02-19T14:05:51.793Z,4.40
2024-02-19T14:07:54.604Z,3.90
2024-02-19T14:09:57.371Z,4.57
2024-02-19T14:12:00.116Z,4.70
2024-02-19T14:14:03.783Z,3.87
2024-02-19T14:16:08.575Z,3.70
2024-02-19T14:18:11.452Z,4.00
2024-02-19T14:20:14.376Z,4.53
2024-02-19T14:22:17.202Z,4.23
2024-02-19T14:24:20.085Z,3.97
2024-02-19T14:26:24.708Z,3.10
2024-02-19T14:28:26.541Z,3.63
2024-02-19T14:30:29.300Z,2.70
2024-02-19T14:32:33.395Z,3.03
2024-02-19T14:34:36.218Z,3.60
2024-02-19T14:36:39.205Z,4.23
2024-02-19T14:38:42.208Z,4.13
2024-02-19T14:40:45.103Z,4.13
2024-02-19T14:42:48.775Z,4.33
2024-02-19T14:44:52.674Z,4.73
2024-02-19T14:47:02.226Z,4.20
2024-02-19T14:49:12.347Z,4.67
2024-02-19T14:51:18.785Z,4.53
2024-02-19T14:53:22.809Z,4.40
2024-02-19T14:55:25.859Z,4.70
2024-02-19T14:57:30.059Z,5.23
2024-02-19T14:59:31.836Z,4.73
2024-02-19T15:01:34.879Z,5.60
2024-02-19T15:03:37.741Z,4.80
2024-02-19T15:05:41.883Z,4.03
2024-02-19T15:07:46.277Z,5.90
2024-02-19T15:09:49.305Z,4.83
2024-02-19T15:11:52.051Z,4.60
2024-02-19T15:13:53.948Z,5.77
2024-02-19T15:15:56.800Z,4.97
2024-02-19T15:17:59.635Z,4.70
2024-02-19T15:20:01.596Z,4.50
2024-02-19T15:22:05.842Z,4.77
2024-02-19T15:24:09.819Z,4.80
2024-02-19T15:26:13.620Z,4.43
2024-02-19T15:28:16.695Z,4.20
2024-02-19T15:30:20.605Z,5.50
2024-02-19T15:32:24.177Z,4.60
2024-02-19T15:34:27.033Z,4.63
2024-02-19T15:36:29.819Z,4.40
2024-02-19T15:38:33.888Z,5.17
2024-02-19T15:40:36.709Z,5.40
2024-02-19T15:42:39.633Z,4.97
2024-02-19T15:44:44.038Z,5.30
2024-02-19T15:46:46.819Z,5.87
2024-02-19T15:48:49.984Z,4.97
2024-02-19T15:50:54.072Z,5.03
2024-02-19T15:53:01.963Z,4.43
2024-02-19T15:55:11.962Z,4.90
2024-02-19T15:57:14.768Z,5.10
2024-02-19T15:59:17.600Z,5.00
2024-02-19T16:01:20.475Z,4.50
2024-02-19T16:03:23.241Z,5.37
2024-02-19T16:05:27.724Z,22.93
2024-02-19T16:07:30.595Z,5.00
2024-02-19T16:09:33.401Z,5.07
2024-02-19T16:11:37.887Z,5.20
2024-02-19T16:13:40.574Z,6.93
2024-02-19T16:15:43.451Z,6.00
2024-02-19T16:17:46.638Z,5.10
2024-02-19T16:19:49.469Z,4.90
2024-02-19T16:21:52.291Z,6.43
2024-02-19T16:23:55.046Z,6.03
2024-02-19T16:25:56.895Z,6.37
2024-02-19T16:28:01.041Z,6.17
2024-02-19T16:30:07.202Z,6.73
2024-02-19T16:32:12.789Z,7.27
2024-02-19T16:34:14.669Z,6.70
2024-02-19T16:36:17.957Z,6.80
2024-02-19T16:38:19.824Z,6.30
2024-02-19T16:40:22.667Z,6.30
2024-02-19T16:42:25.438Z,6.10
2024-02-19T16:44:30.341Z,7.60
2024-02-19T16:46:33.136Z,7.40
2024-02-19T16:48:40.188Z,8.37
2024-02-19T16:50:43.522Z,6.77
2024-02-19T16:52:47.247Z,7.17
2024-02-19T16:54:50.014Z,6.50
2024-02-19T16:56:53.905Z,7.27
2024-02-19T16:58:56.678Z,7.60
2024-02-19T17:01:03.199Z,9.13
2024-02-19T17:03:06.528Z,7.33
2024-02-19T17:05:10.239Z,7.43
2024-02-19T17:07:13.409Z,8.93
2024-02-19T17:09:16.317Z,8.30
2024-02-19T17:11:20.606Z,8.07
2024-02-19T17:13:22.634Z,7.93
2024-02-19T17:15:25.393Z,7.73
2024-02-19T17:17:29.567Z,7.80
2024-02-19T17:19:32.956Z,8.03
2024-02-19T17:21:37.583Z,7.67
2024-02-19T17:23:43.812Z,8.77
2024-02-19T17:25:47.332Z,8.87
2024-02-19T17:27:49.652Z,9.97
2024-02-19T17:29:52.406Z,9.50
2024-02-19T17:31:55.232Z,10.70
2024-02-19T17:33:59.422Z,10.40
2024-02-19T17:36:02.344Z,9.40
2024-02-19T17:38:05.387Z,10.10
2024-02-19T17:40:10.740Z,8.13
2024-02-19T17:42:13.573Z,9.00
2024-02-19T17:44:16.321Z,9.40
2024-02-19T17:46:19.177Z,8.00
2024-02-19T17:48:22.297Z,9.10
2024-02-19T17:50:26.712Z,10.87
2024-02-19T17:52:29.677Z,8.50
2024-02-19T17:54:32.512Z,9.90
2024-02-19T17:56:35.320Z,12.60
2024-02-19T17:58:38.137Z,11.83
2024-02-19T18:00:42.176Z,9.93
2024-02-19T18:02:45.916Z,9.87
2024-02-19T18:04:55.050Z,11.67
2024-02-19T18:07:01.476Z,12.63
2024-02-19T18:09:04.621Z,12.50
2024-02-19T18:11:08.647Z,12.60
2024-02-19T18:13:11.555Z,13.07
2024-02-19T18:15:14.805Z,14.90
2024-02-19T18:17:17.621Z,15.17
2024-02-19T18:19:20.497Z,15.43
2024-02-19T18:21:23.314Z,14.63
2024-02-19T18:23:29.673Z,15.40
2024-02-19T18:25:31.587Z,15.60
2024-02-19T18:27:34.359Z,16.03
2024-02-19T18:29:37.144Z,14.07
2024-02-19T18:31:40.058Z,15.87
2024-02-19T18:33:42.883Z,14.03
2024-02-19T18:35:46.357Z,14.17
2024-02-19T18:37:49.422Z,14.57
2024-02-19T18:39:53.541Z,13.60
2024-02-19T18:41:56.582Z,16.80
2024-02-19T18:44:02.372Z,14.70
2024-02-19T18:46:05.433Z,17.20
2024-02-19T18:48:08.817Z,18.50
2024-02-19T18:50:12.694Z,16.70
2024-02-19T18:52:16.845Z,16.47
2024-02-19T18:54:19.583Z,18.10
2024-02-19T18:56:23.692Z,18.40
2024-02-19T18:58:28.184Z,18.20
2024-02-19T19:00:32.030Z,18.37
2024-02-19T19:02:35.392Z,16.90
2024-02-19T19:04:38.384Z,16.37
2024-02-19T19:06:41.225Z,15.07
2024-02-19T19:08:43.959Z,15.10
2024-02-19T19:10:47.008Z,13.10
2024-02-19T19:12:51.257Z,14.00
2024-02-19T19:14:54.034Z,12.63
2024-02-19T19:16:57.171Z,12.97
2024-02-19T19:19:04.375Z,12.10
2024-02-19T19:21:07.537Z,11.97
2024-02-19T19:23:10.442Z,12.43
2024-02-19T19:25:13.593Z,13.40
2024-02-19T19:27:17.250Z,12.90
2024-02-19T19:29:21.974Z,13.30
2024-02-19T19:31:24.813Z,12.30
2024-02-19T19:33:27.784Z,13.70
2024-02-19T19:35:32.378Z,14.63
2024-02-19T19:37:35.238Z,14.10
2024-02-19T19:39:38.020Z,15.57
2024-02-19T19:41:40.759Z,15.87
2024-02-19T19:43:43.519Z,16.10
2024-02-19T19:45:47.748Z,15.10
2024-02-19T19:47:50.148Z,16.90
2024-02-19T19:49:53.173Z,15.63
2024-02-19T19:51:56.722Z,18.50
2024-02-19T19:53:59.724Z,16.47
2024-02-19T19:56:02.461Z,15.80
2024-02-19T19:58:11.369Z,15.60
2024-02-19T20:00:20.569Z,16.20
2024-02-19T20:02:24.162Z,16.30
2024-02-19T20:04:29.844Z,15.97
2024-02-19T20:06:34.000Z,16.90
2024-02-19T20:08:37.282Z,16.60
2024-02-19T20:10:40.502Z,17.83
2024-02-19T20:12:43.425Z,17.90
2024-02-19T20:14:46.143Z,18.00
2024-02-19T20:16:48.891Z,18.87
2024-02-19T20:18:53.031Z,18.80
2024-02-19T20:20:55.853Z,19.10
2024-02-19T20:22:57.677Z,19.13
2024-02-19T20:25:00.478Z,17.50
2024-02-19T20:27:04.019Z,10.50
2024-02-19T20:29:07.998Z,17.07
2024-02-19T20:31:11.037Z,17.70
2024-02-19T20:33:13.938Z,18.00
2024-02-19T20:35:18.184Z,18.30
2024-02-19T20:37:21.174Z,16.77
2024-02-19T20:39:23.996Z,15.83
2024-02-19T20:41:27.465Z,16.50
2024-02-19T20:43:29.487Z,14.77
2024-02-19T20:45:33.702Z,17.30
2024-02-19T20:47:40.491Z,15.60
2024-02-19T20:49:45.670Z,15.77
2024-02-19T20:51:49.887Z,16.20
2024-02-19T20:53:52.694Z,15.97
2024-02-19T20:55:56.600Z,13.70
2024-02-19T20:57:59.393Z,14.50
2024-02-19T21:00:03.603Z,14.67
2024-02-19T21:02:07.883Z,13.67
2024-02-19T21:04:10.370Z,14.57
2024-02-19T21:06:13.185Z,13.67
2024-02-19T21:08:17.457Z,12.90
2024-02-19T21:10:21.533Z,14.50
2024-02-19T21:12:24.505Z,13.77
2024-02-19T21:14:27.391Z,15.50
2024-02-19T21:16:30.209Z,14.13
2024-02-19T21:18:39.337Z,14.30
2024-02-19T21:20:49.508Z,12.60
2024-02-19T21:22:52.417Z,11.20
2024-02-19T21:24:57.691Z,10.77
2024-02-19T21:27:02.072Z,10.40
2024-02-19T21:29:03.892Z,9.73
2024-02-19T21:31:06.669Z,10.50
2024-02-19T21:33:09.559Z,10.47
2024-02-19T21:35:14.107Z,12.17
2024-02-19T21:37:17.563Z,11.90
2024-02-19T21:39:20.687Z,10.53
2024-02-19T21:41:24.884Z,10.53
2024-02-19T21:43:27.714Z,13.37
2024-02-19T21:45:30.510Z,11.47
2024-02-19T21:47:33.564Z,12.37
2024-02-19T21:49:37.923Z,11.37
2024-02-19T21:51:41.857Z,11.50
2024-02-19T21:53:44.641Z,10.60
2024-02-19T21:55:47.549Z,12.30
2024-02-19T21:57:52.269Z,11.10
2024-02-19T21:59:55.011Z,12.10
2024-02-19T22:01:57.729Z,12.67
2024-02-19T22:04:02.141Z,11.63
2024-02-19T22:06:06.695Z,11.73
2024-02-19T22:08:09.461Z,10.90
2024-02-19T22:10:12.450Z,11.40
2024-02-19T22:12:15.349Z,10.67
2024-02-19T22:14:19.481Z,11.20
2024-02-19T22:16:22.858Z,11.30
2024-02-19T22:18:26.662Z,10.57
2024-02-19T22:20:30.680Z,9.50
2024-02-19T22:22:35.602Z,10.83
2024-02-19T22:24:39.864Z,10.80
2024-02-19T22:26:42.611Z,9.70
2024-02-19T22:28:45.383Z,11.40
2024-02-19T22:30:49.499Z,9.80
2024-02-19T22:32:52.346Z,9.80
2024-02-19T22:34:54.217Z,9.90
2024-02-19T22:36:59.107Z,10.10
2024-02-19T22:39:01.936Z,9.80
2024-02-19T22:41:04.903Z,9.00
2024-02-19T22:43:10.856Z,9.30
2024-02-19T22:45:13.965Z,8.70
2024-02-19T22:47:18.037Z,8.60
2024-02-19T22:49:20.873Z,8.40
2024-02-19T22:51:23.865Z,8.60
2024-02-19T22:53:26.618Z,7.63
2024-02-19T22:55:29.548Z,8.57
2024-02-19T22:57:31.851Z,9.07
2024-02-19T22:59:35.552Z,8.53
2024-02-19T23:01:38.350Z,7.70
2024-02-19T23:03:41.565Z,8.37
2024-02-19T23:05:44.432Z,7.80
2024-02-19T23:07:48.439Z,8.73
2024-02-19T23:09:51.239Z,7.20
2024-02-19T23:11:53.983Z,7.37
2024-02-19T23:13:56.758Z,6.57
2024-02-19T23:15:59.691Z,6.80
2024-02-19T23:18:03.577Z,7.90
2024-02-19T23:20:09.586Z,6.60
2024-02-19T23:22:12.478Z,6.60
2024-02-19T23:24:15.276Z,6.20
2024-02-19T23:26:18.097Z,5.70
2024-02-19T23:28:20.957Z,7.00
2024-02-19T23:30:23.862Z,6.90
2024-02-19T23:32:25.706Z,6.23
2024-02-19T23:34:28.573Z,5.37
2024-02-19T23:36:34.276Z,5.60
2024-02-19T23:38:37.055Z,5.73
2024-02-19T23:40:39.886Z,5.23
2024-02-19T23:42:43.167Z,5.20
2024-02-19T23:44:46.041Z,6.10
2024-02-19T23:46:48.786Z,5.90
2024-02-19T23:48:51.588Z,5.37
2024-02-19T23:50:55.309Z,5.40
2024-02-19T23:52:58.525Z,5.47
2024-02-19T23:55:01.600Z,5.20
2024-02-19T23:57:04.843Z,5.43
2024-02-19T23:59:07.762Z,5.50
